Time;durP1;ratioP1;P1;durP2;ratioP2;P2;SDS_P1;SDS_P2;PMS_P1;PMS_P2;Temp;Humidity;BMP_temperature;BMP_pressure;BME280_temperature;BME280_humidity;BME280_pressure;Samples;Min_cycle;Max_cycle;Signal;HPM_P1;HPM_P2
2023/01/14 00:00:09;;;;;;;;;;;;;;;4.20;94.62;98341.80;106659;1280;125147;-73
2023/01/14 00:02:55;;;;;;;;;;;;;;;4.18;94.50;98338.86;106706;1280;24199;-73
2023/01/14 00:05:22;;;;;;;;;;;;;;;4.17;94.54;98345.85;106706;1269;22511;-74
2023/01/14 00:07:49;;;;;;;;;;;;;;;4.15;94.72;98348.63;106599;1264;125007;-73
2023/01/14 00:10:16;;;;;;;;;;;;;;;4.13;94.82;98350.99;106615;1281;25379;-73
2023/01/14 00:12:42;;;;;;;;;;;;;;;4.11;94.75;98358.33;106831;1275;124323;-74
2023/01/14 00:15:09;;;;;;;;;;;;;;;4.09;94.89;98364.27;106608;1276;22525;-73
2023/01/14 00:17:36;;;;;;;;;;;;;;;4.07;94.76;98365.67;106705;1257;24205;-73
2023/01/14 00:20:03;;;;;;;;;;;;;;;4.04;94.61;98371.30;106668;1279;124192;-73
2023/01/14 00:22:30;;;;;;;;;;;;;;;4.00;94.92;98368.07;106748;1279;22640;-73
2023/01/14 00:24:57;;;;;;;;;;;;;;;3.96;95.06;98374.02;106566;1279;125674;-73
2023/01/14 00:27:24;;;;;;;;;;;;;;;3.94;94.81;98378.16;106686;1262;22569;-73
2023/01/14 00:29:51;;;;;;;;;;;;;;;3.92;95.09;98380.56;106597;1280;124532;-74
2023/01/14 00:32:17;;;;;;;;;;;;;;;3.89;95.05;98378.41;106687;1281;24269;-73
2023/01/14 00:34:46;;;;;;;;;;;;;;;3.87;95.26;98380.10;106668;1281;24213;-73
2023/01/14 00:37:13;;;;;;;;;;;;;;;3.86;95.25;98383.48;106528;1263;124372;-73
2023/01/14 00:39:40;;;;;;;;;;;;;;;3.85;95.43;98387.96;106725;1280;24199;-73
2023/01/14 00:42:06;;;;;;;;;;;;;;;3.84;95.50;98390.12;106543;1279;124818;-74
2023/01/14 00:44:36;;;;;;;;;;;;;;;3.82;95.54;98389.83;106738;1280;24276;-73
2023/01/14 00:47:03;;;;;;;;;;;;;;;3.80;95.52;98388.41;106836;1262;22524;-73
2023/01/14 00:49:30;;;;;;;;;;;;;;;3.79;95.81;98393.42;106504;1281;124421;-73
2023/01/14 00:52:00;;;;;;;;;;;;;;;3.77;95.66;98394.20;106613;1281;22511;-73
2023/01/14 00:54:27;;;;;;;;;;;;;;;3.76;95.74;98395.65;106526;1281;124670;-73
2023/01/14 00:56:56;;;;;;;;;;;;;;;3.74;95.67;98400.66;106610;1257;22518;-73
2023/01/14 00:59:23;;;;;;;;;;;;;;;3.72;95.88;98397.86;106738;1280;25387;-73
2023/01/14 01:01:51;;;;;;;;;;;;;;;3.71;95.85;98392.77;106640;1280;124285;-73
2023/01/14 01:04:18;;;;;;;;;;;;;;;3.71;96.07;98394.96;106709;1280;25385;-73
2023/01/14 01:06:45;;;;;;;;;;;;;;;3.71;96.11;98395.98;106802;1257;125228;-74
2023/01/14 01:09:12;;;;;;;;;;;;;;;3.69;96.13;98393.42;106540;1281;24359;-73
2023/01/14 01:11:39;;;;;;;;;;;;;;;3.68;95.92;98394.50;106553;1280;25347;-73
2023/01/14 01:14:05;;;;;;;;;;;;;;;3.66;96.05;98397.52;106632;1281;124093;-73
2023/01/14 01:16:32;;;;;;;;;;;;;;;3.64;96.22;98398.27;106524;1281;22870;-73
2023/01/14 01:18:59;;;;;;;;;;;;;;;3.63;96.30;98399.71;106477;1264;124620;-73
2023/01/14 01:21:27;;;;;;;;;;;;;;;3.61;96.53;98398.96;106584;1272;22652;-73
2023/01/14 01:23:54;;;;;;;;;;;;;;;3.60;96.53;98399.79;106490;1279;124715;-73
2023/01/14 01:26:22;;;;;;;;;;;;;;;3.60;96.49;98400.08;106520;1280;22580;-73
2023/01/14 01:28:54;;;;;;;;;;;;;;;3.59;96.47;98400.29;106597;1263;22522;-73
2023/01/14 01:31:22;;;;;;;;;;;;;;;3.59;96.43;98396.59;106392;1281;124557;-73
2023/01/14 01:33:49;;;;;;;;;;;;;;;3.57;96.40;98402.63;106535;1281;25387;-73
2023/01/14 01:36:20;;;;;;;;;;;;;;;3.55;96.62;98404.44;106401;1281;125080;-73
2023/01/14 01:38:48;;;;;;;;;;;;;;;3.54;96.49;98405.89;106327;1279;224030;-73
2023/01/14 01:41:21;;;;;;;;;;;;;;;3.52;96.60;98409.48;106593;1280;26491;-73
2023/01/14 01:44:03;;;;;;;;;;;;;;;3.51;96.60;98402.11;106520;1280;125779;-73
2023/01/14 01:46:30;;;;;;;;;;;;;;;3.52;96.62;98407.24;106724;1280;22516;-73
2023/01/14 01:49:00;;;;;;;;;;;;;;;3.51;96.57;98406.24;106430;1263;124434;-73
2023/01/14 01:51:30;;;;;;;;;;;;;;;3.50;96.28;98410.17;106516;1281;22512;-74
2023/01/14 01:53:57;;;;;;;;;;;;;;;3.48;96.33;98409.80;106462;1281;125677;-73
2023/01/14 01:56:27;;;;;;;;;;;;;;;3.48;96.35;98405.65;106531;1281;22517;-73
2023/01/14 01:58:55;;;;;;;;;;;;;;;3.45;96.17;98402.16;106563;1260;23292;-74
2023/01/14 02:01:24;;;;;;;;;;;;;;;3.43;96.14;98396.86;106562;1280;124296;-73
2023/01/14 02:03:51;;;;;;;;;;;;;;;3.41;96.14;98401.25;106578;1280;22508;-73
2023/01/14 02:06:18;;;;;;;;;;;;;;;3.39;96.20;98402.14;106500;1279;124432;-73
2023/01/14 02:08:48;;;;;;;;;;;;;;;3.36;96.35;98407.63;106552;1262;23502;-73
2023/01/14 02:11:34;;;;;;;;;;;;;;;3.34;96.21;98408.04;106522;1281;22514;-76
2023/01/14 02:14:16;;;;;;;;;;;;;;;3.33;96.23;98410.80;106824;1274;124421;-73
2023/01/14 02:17:07;;;;;;;;;;;;;;;3.30;96.28;98412.16;106560;1281;22535;-74
2023/01/14 02:19:54;;;;;;;;;;;;;;;3.29;96.45;98415.84;106599;1263;124455;-73
2023/01/14 02:22:21;;;;;;;;;;;;;;;3.27;96.44;98416.16;106651;1280;22514;-74
2023/01/14 02:24:48;;;;;;;;;;;;;;;3.25;96.31;98414.25;106440;1280;126555;-73
2023/01/14 02:27:16;;;;;;;;;;;;;;;3.24;96.26;98419.24;106631;1279;22523;-73
2023/01/14 02:30:19;;;;;;;;;;;;;;;3.22;96.25;98418.25;106481;1264;22535;-74
2023/01/14 02:32:47;;;;;;;;;;;;;;;3.20;96.48;98423.48;106076;1288;22815;-73
2023/01/14 02:35:28;;;;;;;;;;;;;;;3.19;96.31;98424.68;106059;1288;25474;-74
2023/01/14 02:38:15;;;;;;;;;;;;;;;3.17;96.30;98421.16;106090;1288;126023;-74
2023/01/14 02:40:42;;;;;;;;;;;;;;;3.17;96.47;98422.31;105930;1271;26265;-73
2023/01/14 02:46:17;;;;;;;;;;;;;;;3.14;96.09;98424.53;106347;1288;26645;-73
2023/01/14 02:48:44;;;;;;;;;;;;;;;3.12;96.11;98431.42;105935;1289;124701;-74
2023/01/14 02:51:12;;;;;;;;;;;;;;;3.09;96.14;98429.60;106061;1288;23372;-74
2023/01/14 02:53:39;;;;;;;;;;;;;;;3.07;96.04;98430.91;106495;1288;22528;-73
2023/01/14 02:56:06;;;;;;;;;;;;;;;3.06;96.23;98431.65;105914;1289;124641;-73
2023/01/14 02:58:33;;;;;;;;;;;;;;;3.04;96.22;98434.86;105914;1289;22520;-73
2023/01/14 03:01:00;;;;;;;;;;;;;;;3.02;96.23;98435.10;105873;1273;125229;-73
2023/01/14 03:03:47;;;;;;;;;;;;;;;3.00;96.13;98433.76;106167;1289;22980;-73
2023/01/14 03:06:34;;;;;;;;;;;;;;;2.99;96.40;98439.34;105873;1281;124540;-74
2023/01/14 03:09:07;;;;;;;;;;;;;;;2.98;96.33;98442.73;106487;1281;22529;-74
2023/01/14 03:11:49;;;;;;;;;;;;;;;2.97;96.30;98444.08;106496;1263;24233;-73
2023/01/14 03:14:22;;;;;;;;;;;;;;;2.95;96.13;98440.85;106343;1281;124160;-73
2023/01/14 03:16:54;;;;;;;;;;;;;;;2.94;96.39;98441.38;106594;1281;22526;-73
2023/01/14 03:19:34;;;;;;;;;;;;;;;2.93;96.38;98442.77;106433;1281;124741;-74
2023/01/14 03:22:03;;;;;;;;;;;;;;;2.93;96.61;98449.94;106782;1281;22916;-73
2023/01/14 03:24:45;;;;;;;;;;;;;;;2.93;96.51;98451.05;106410;1269;124533;-73
2023/01/14 03:27:21;;;;;;;;;;;;;;;2.94;96.59;98460.61;106494;1281;22686;-74
2023/01/14 03:29:58;;;;;;;;;;;;;;;2.94;96.57;98461.14;106849;1257;22491;-73
2023/01/14 03:32:39;;;;;;;;;;;;;;;2.94;96.61;98458.75;106949;1279;24384;-73
2023/01/14 03:35:15;;;;;;;;;;;;;;;2.95;96.47;98465.46;106639;1280;23001;-73
2023/01/14 03:37:47;;;;;;;;;;;;;;;2.95;96.61;98467.28;106621;1279;124296;-73
2023/01/14 03:40:15;;;;;;;;;;;;;;;2.96;96.55;98467.54;106583;1263;23451;-73
2023/01/14 03:42:44;;;;;;;;;;;;;;;2.97;96.77;98474.78;106454;1280;124592;-74
2023/01/14 03:45:11;;;;;;;;;;;;;;;2.97;96.68;98480.50;106551;1281;24350;-76
2023/01/14 03:47:39;;;;;;;;;;;;;;;2.96;96.72;98485.55;106617;1280;23530;-73
2023/01/14 03:50:08;;;;;;;;;;;;;;;2.98;96.82;98493.45;106468;1281;124256;-74
2023/01/14 03:52:34;;;;;;;;;;;;;;;2.97;96.68;98494.24;106574;1273;24272;-74
2023/01/14 03:55:04;;;;;;;;;;;;;;;2.97;96.70;98498.50;106564;1280;124289;-73
2023/01/14 03:57:35;;;;;;;;;;;;;;;2.97;96.89;98499.95;106598;1280;25526;-76
2023/01/14 04:00:07;;;;;;;;;;;;;;;2.98;96.94;98500.38;106517;1279;124545;-74
2023/01/14 04:02:41;;;;;;;;;;;;;;;2.99;96.96;98501.67;106795;1275;24214;-73
2023/01/14 04:05:08;;;;;;;;;;;;;;;3.01;97.15;98503.63;106699;1281;22522;-73
2023/01/14 04:07:35;;;;;;;;;;;;;;;3.01;97.07;98508.92;106429;1281;124282;-73
2023/01/14 04:10:02;;;;;;;;;;;;;;;3.01;96.92;98507.31;106538;1281;22520;-73
2023/01/14 04:12:29;;;;;;;;;;;;;;;3.00;97.01;98511.02;106473;1263;124994;-73
2023/01/14 04:17:41;;;;;;;;;;;;;;;2.99;96.82;98516.93;106657;1279;25453;-73
2023/01/14 04:20:09;;;;;;;;;;;;;;;2.99;96.75;98518.71;106506;1280;125425;-73
2023/01/14 04:22:36;;;;;;;;;;;;;;;2.99;96.97;98522.48;106547;1275;24248;-73
2023/01/14 04:25:02;;;;;;;;;;;;;;;2.99;97.05;98527.86;106452;1281;124305;-73
2023/01/14 04:27:29;;;;;;;;;;;;;;;3.00;96.98;98528.16;106609;1276;22521;-73
2023/01/14 04:29:56;;;;;;;;;;;;;;;3.01;97.11;98529.61;106465;1276;26497;-73
2023/01/14 04:32:23;;;;;;;;;;;;;;;3.02;97.02;98527.76;106592;1261;124309;-73
2023/01/14 04:34:49;;;;;;;;;;;;;;;3.02;97.19;98524.23;106629;1273;22504;-73
2023/01/14 04:37:16;;;;;;;;;;;;;;;3.04;97.08;98528.19;106516;1280;124575;-73
2023/01/14 04:39:43;;;;;;;;;;;;;;;3.04;97.07;98527.45;106638;1280;25758;-73
2023/01/14 04:42:28;;;;;;;;;;;;;;;3.04;97.08;98528.65;106453;1262;124654;-73
2023/01/14 04:45:00;;;;;;;;;;;;;;;3.06;96.94;98531.55;106527;1281;24210;-73
2023/01/14 04:47:28;;;;;;;;;;;;;;;3.06;97.07;98529.53;106723;1281;25331;-74
2023/01/14 04:49:55;;;;;;;;;;;;;;;3.07;97.16;98532.44;106575;1281;124250;-73
2023/01/14 04:52:23;;;;;;;;;;;;;;;3.08;97.20;98533.98;106568;1279;22595;-73
2023/01/14 04:54:51;;;;;;;;;;;;;;;3.08;96.89;98532.86;106649;1280;124326;-73
2023/01/14 04:57:18;;;;;;;;;;;;;;;3.09;97.00;98534.40;106647;1280;22657;-73
2023/01/14 04:59:45;;;;;;;;;;;;;;;3.09;96.96;98537.42;106634;1279;24239;-73
2023/01/14 05:02:12;;;;;;;;;;;;;;;3.09;96.81;98539.04;106528;1261;124611;-73
2023/01/14 05:04:38;;;;;;;;;;;;;;;3.09;96.78;98539.56;106557;1280;22507;-73
2023/01/14 05:07:06;;;;;;;;;;;;;;;3.10;96.82;98539.86;106635;1269;124710;-73
2023/01/14 05:09:32;;;;;;;;;;;;;;;3.09;96.75;98543.17;106682;1281;25278;-73
2023/01/14 05:11:59;;;;;;;;;;;;;;;3.09;96.77;98542.67;106591;1257;25462;-73
2023/01/14 05:14:26;;;;;;;;;;;;;;;3.09;96.83;98537.62;106541;1279;140272;-73
2023/01/14 05:16:53;;;;;;;;;;;;;;;3.08;96.83;98542.77;106607;1280;22511;-73
2023/01/14 05:19:20;;;;;;;;;;;;;;;3.07;96.67;98542.13;106538;1280;124792;-73
2023/01/14 05:21:47;;;;;;;;;;;;;;;3.07;96.84;98543.64;106567;1280;25411;-73
2023/01/14 05:24:14;;;;;;;;;;;;;;;3.07;96.79;98547.95;106535;1262;124908;-74
2023/01/14 05:26:41;;;;;;;;;;;;;;;3.06;96.85;98555.73;106534;1281;22642;-73
2023/01/14 05:29:08;;;;;;;;;;;;;;;3.06;96.90;98558.95;106558;1281;23889;-73
2023/01/14 05:31:35;;;;;;;;;;;;;;;3.05;96.77;98561.89;106463;1281;124726;-76
2023/01/14 05:34:03;;;;;;;;;;;;;;;3.05;96.79;98566.45;106544;1264;22674;-76
2023/01/14 05:36:30;;;;;;;;;;;;;;;3.05;96.89;98573.44;106535;1280;124688;-73
2023/01/14 05:38:57;;;;;;;;;;;;;;;3.05;96.82;98575.95;106589;1280;22508;-73
2023/01/14 05:41:23;;;;;;;;;;;;;;;3.04;96.82;98586.80;106618;1280;23139;-73
2023/01/14 05:46:36;;;;;;;;;;;;;;;3.04;97.08;98585.85;106579;1280;22510;-76
2023/01/14 05:49:02;;;;;;;;;;;;;;;3.04;97.00;98589.10;106494;1280;125293;-73
2023/01/14 05:51:29;;;;;;;;;;;;;;;3.04;97.04;98583.41;106602;1280;23913;-73
2023/01/14 05:53:56;;;;;;;;;;;;;;;3.05;97.13;98591.94;106579;1261;25214;-73
2023/01/14 05:56:23;;;;;;;;;;;;;;;3.05;97.10;98589.20;106573;1280;124247;-73
2023/01/14 05:58:49;;;;;;;;;;;;;;;3.05;97.24;98591.19;106623;1280;25318;-73
2023/01/14 06:06:50;;;;;;;;;;;;;;;3.08;97.39;98601.24;106443;1281;124904;-74
2023/01/14 06:09:18;;;;;;;;;;;;;;;3.09;97.39;98607.05;106570;1281;22543;-74
2023/01/14 06:12:01;;;;;;;;;;;;;;;3.10;97.41;98612.30;106550;1282;25338;-74
2023/01/14 06:14:32;;;;;;;;;;;;;;;3.12;97.38;98613.27;106669;1266;23892;-74
2023/01/14 06:17:02;;;;;;;;;;;;;;;3.14;97.41;98612.30;106453;1282;22628;-74
2023/01/14 06:19:29;;;;;;;;;;;;;;;3.16;97.44;98610.59;106366;1273;125733;-74
2023/01/14 06:21:55;;;;;;;;;;;;;;;3.18;97.60;98614.08;106597;1282;22568;-74
2023/01/14 06:24:22;;;;;;;;;;;;;;;3.21;97.50;98616.79;106577;1261;124524;-74
2023/01/14 06:26:49;;;;;;;;;;;;;;;3.23;97.50;98618.52;106749;1279;22534;-74
2023/01/14 06:29:16;;;;;;;;;;;;;;;3.25;97.39;98619.85;106710;1263;25240;-74
2023/01/14 06:31:43;;;;;;;;;;;;;;;3.27;97.36;98620.19;106618;1280;124240;-74
2023/01/14 06:34:10;;;;;;;;;;;;;;;3.29;97.44;98623.73;106686;1280;23924;-74
2023/01/14 06:36:37;;;;;;;;;;;;;;;3.31;97.34;98625.45;106531;1281;124553;-74
2023/01/14 06:39:04;;;;;;;;;;;;;;;3.33;97.33;98634.12;106625;1281;22526;-74
2023/01/14 06:41:31;;;;;;;;;;;;;;;3.35;97.13;98636.45;106685;1273;24274;-74
2023/01/14 06:43:58;;;;;;;;;;;;;;;3.37;97.20;98638.46;106547;1257;125920;-75
2023/01/14 06:46:25;;;;;;;;;;;;;;;3.39;97.11;98636.58;106799;1280;22798;-74
2023/01/14 06:48:51;;;;;;;;;;;;;;;3.40;96.85;98640.77;106622;1280;124624;-74
2023/01/14 06:51:20;;;;;;;;;;;;;;;3.42;96.87;98645.00;106687;1280;23879;-74
2023/01/14 06:53:49;;;;;;;;;;;;;;;3.43;96.81;98646.31;106781;1258;22543;-75
2023/01/14 06:56:21;;;;;;;;;;;;;;;3.45;96.89;98645.07;106697;1270;124535;-74
2023/01/14 06:58:52;;;;;;;;;;;;;;;3.46;96.76;98647.02;106848;1275;25337;-74
2023/01/14 07:01:21;;;;;;;;;;;;;;;3.48;96.75;98652.52;106584;1280;124266;-74
2023/01/14 07:03:48;;;;;;;;;;;;;;;3.50;96.65;98655.52;106602;1280;22527;-74
2023/01/14 07:06:18;;;;;;;;;;;;;;;3.52;96.88;98660.34;106668;1263;124946;-75
2023/01/14 07:08:50;;;;;;;;;;;;;;;3.54;96.51;98659.48;106919;1280;22521;-74
2023/01/14 07:11:17;;;;;;;;;;;;;;;3.56;96.55;98659.88;107257;1279;22519;-74
2023/01/14 07:13:44;;;;;;;;;;;;;;;3.58;96.40;98658.37;106682;1280;125119;-74
2023/01/14 07:16:10;;;;;;;;;;;;;;;3.59;96.39;98661.80;106646;1278;22534;-74
2023/01/14 07:18:41;;;;;;;;;;;;;;;3.62;96.37;98663.89;106543;1280;124477;-74
2023/01/14 07:21:12;;;;;;;;;;;;;;;3.64;96.33;98665.61;106640;1279;22525;-74
2023/01/14 07:23:38;;;;;;;;;;;;;;;3.65;96.34;98666.52;106998;1281;22560;-74
2023/01/14 07:26:05;;;;;;;;;;;;;;;3.67;96.16;98663.80;106627;1263;124275;-74
2023/01/14 07:28:32;;;;;;;;;;;;;;;3.69;96.24;98664.73;106745;1273;25092;-74
2023/01/14 07:31:03;;;;;;;;;;;;;;;3.71;95.88;98667.36;106626;1279;125300;-74
2023/01/14 07:33:30;;;;;;;;;;;;;;;3.73;95.90;98664.73;106729;1279;22573;-74
2023/01/14 07:35:57;;;;;;;;;;;;;;;3.76;95.84;98667.40;106690;1262;22525;-74
2023/01/14 07:38:23;;;;;;;;;;;;;;;3.79;95.96;98675.42;106549;1280;124164;-74
2023/01/14 07:40:50;;;;;;;;;;;;;;;3.83;95.84;98681.86;106693;1280;24261;-74
2023/01/14 07:43:17;;;;;;;;;;;;;;;3.86;95.80;98685.42;106991;1279;127022;-74
2023/01/14 07:45:44;;;;;;;;;;;;;;;3.89;95.83;98686.60;106769;1264;22616;-74
2023/01/14 07:48:11;;;;;;;;;;;;;;;3.92;95.81;98682.23;106778;1279;124445;-74
2023/01/14 07:50:37;;;;;;;;;;;;;;;3.96;95.67;98688.75;106859;1279;22624;-74
2023/01/14 07:53:04;;;;;;;;;;;;;;;3.99;95.61;98691.44;106703;1279;22507;-74
2023/01/14 07:55:33;;;;;;;;;;;;;;;4.03;95.61;98695.98;106684;1257;124792;-74
2023/01/14 07:58:00;;;;;;;;;;;;;;;4.08;95.52;98698.08;106593;1282;22519;-74
2023/01/14 08:00:26;;;;;;;;;;;;;;;4.11;95.36;98700.91;106548;1282;124637;-74
2023/01/14 08:02:53;;;;;;;;;;;;;;;4.15;95.14;98701.98;106664;1282;23790;-74
2023/01/14 08:05:20;;;;;;;;;;;;;;;4.19;95.21;98701.30;106629;1257;25369;-74
2023/01/14 08:07:47;;;;;;;;;;;;;;;4.23;95.05;98701.16;106650;1280;125028;-74
2023/01/14 08:10:13;;;;;;;;;;;;;;;4.28;94.96;98702.61;106719;1280;25341;-74
2023/01/14 08:12:40;;;;;;;;;;;;;;;4.34;95.02;98701.65;106657;1280;124617;-74
2023/01/14 08:15:10;;;;;;;;;;;;;;;4.41;94.81;98704.79;106995;1276;22994;-74
2023/01/14 08:17:37;;;;;;;;;;;;;;;4.46;94.59;98701.47;106561;1263;25486;-74
2023/01/14 08:20:04;;;;;;;;;;;;;;;4.51;94.34;98702.77;106406;1281;124245;-74
2023/01/14 08:22:31;;;;;;;;;;;;;;;4.56;94.29;98700.48;106507;1281;25304;-74
2023/01/14 08:24:58;;;;;;;;;;;;;;;4.60;94.23;98704.84;106420;1282;124781;-74
2023/01/14 08:27:27;;;;;;;;;;;;;;;4.63;94.04;98711.25;106580;1280;25484;-74
2023/01/14 08:29:54;;;;;;;;;;;;;;;4.66;93.91;98712.52;107329;1273;22511;-75
2023/01/14 08:32:21;;;;;;;;;;;;;;;4.69;93.86;98718.38;107046;1266;124509;-74
2023/01/14 08:34:48;;;;;;;;;;;;;;;4.72;93.75;98720.13;107326;1276;22559;-74
2023/01/14 08:37:15;;;;;;;;;;;;;;;4.75;93.89;98724.58;106721;1262;124983;-74
2023/01/14 08:39:42;;;;;;;;;;;;;;;4.79;93.87;98716.71;106897;1275;22538;-74
2023/01/14 08:42:09;;;;;;;;;;;;;;;4.83;93.75;98718.80;106553;1278;124982;-75
2023/01/14 08:44:35;;;;;;;;;;;;;;;4.87;93.45;98719.11;106433;1282;24233;-74
2023/01/14 08:47:02;;;;;;;;;;;;;;;4.91;93.39;98724.83;106642;1262;23351;-74
2023/01/14 08:49:31;;;;;;;;;;;;;;;4.95;93.17;98726.46;106723;1280;124674;-74
2023/01/14 08:51:59;;;;;;;;;;;;;;;5.01;93.03;98726.44;107906;1274;25393;-74
2023/01/14 08:54:25;;;;;;;;;;;;;;;5.05;92.84;98728.95;108182;1273;124559;-75
2023/01/14 08:56:56;;;;;;;;;;;;;;;5.10;92.38;98731.03;107034;1279;22565;-74
2023/01/14 08:59:23;;;;;;;;;;;;;;;5.15;92.07;98730.13;107306;1272;22556;-75
2023/01/14 09:01:50;;;;;;;;;;;;;;;5.21;92.14;98730.86;107401;1266;126898;-75
2023/01/14 09:04:16;;;;;;;;;;;;;;;5.26;92.00;98729.04;106854;1274;22513;-74
2023/01/14 09:17:47;;;;;;;;;;;;;;;5.52;90.75;98741.27;107552;1267;25240;-75
2023/01/14 09:20:17;;;;;;;;;;;;;;;5.57;90.00;98735.11;106552;1281;125503;-75
2023/01/14 09:22:44;;;;;;;;;;;;;;;5.59;89.90;98734.04;106690;1282;22571;-73
2023/01/14 09:25:11;;;;;;;;;;;;;;;5.62;90.03;98733.27;106470;1281;126066;-74
2023/01/14 09:27:38;;;;;;;;;;;;;;;5.65;89.46;98732.64;106708;1262;22532;-74
2023/01/14 09:30:05;;;;;;;;;;;;;;;5.67;89.50;98729.15;106732;1279;22531;-74
2023/01/14 09:32:37;;;;;;;;;;;;;;;5.69;89.42;98729.61;106530;1279;124806;-74
2023/01/14 09:35:04;;;;;;;;;;;;;;;5.74;89.56;98732.35;106609;1279;22601;-74
2023/01/14 09:37:33;;;;;;;;;;;;;;;5.80;89.70;98733.56;106509;1263;124268;-74
2023/01/14 09:40:00;;;;;;;;;;;;;;;5.85;89.87;98734.15;106620;1281;24353;-74
2023/01/14 09:42:39;;;;;;;;;;;;;;;5.92;89.73;98730.40;106436;1279;124534;-74
2023/01/14 09:45:05;;;;;;;;;;;;;;;5.98;89.72;98733.75;106529;1281;25382;-74
2023/01/14 09:47:32;;;;;;;;;;;;;;;6.03;89.24;98734.52;106596;1264;26683;-74
2023/01/14 09:49:59;;;;;;;;;;;;;;;6.07;88.86;98738.08;106537;1279;124298;-74
2023/01/14 09:52:45;;;;;;;;;;;;;;;6.10;88.86;98733.63;106613;1279;22522;-74
2023/01/14 09:55:21;;;;;;;;;;;;;;;6.14;88.42;98735.91;106868;1269;124342;-74
2023/01/14 09:57:51;;;;;;;;;;;;;;;6.16;88.47;98733.59;106596;1258;22521;-74
2023/01/14 10:00:27;;;;;;;;;;;;;;;6.17;88.30;98729.71;106429;1280;124454;-74
2023/01/14 10:02:57;;;;;;;;;;;;;;;6.17;88.02;98726.64;106567;1281;24212;-74
2023/01/14 10:05:32;;;;;;;;;;;;;;;6.17;87.50;98723.80;106572;1281;22540;-74
2023/01/14 10:08:04;;;;;;;;;;;;;;;6.17;87.32;98721.98;106507;1280;124245;-74
2023/01/14 10:10:42;;;;;;;;;;;;;;;6.19;87.07;98717.94;106621;1280;22508;-74
2023/01/14 10:13:14;;;;;;;;;;;;;;;6.20;87.21;98710.56;106553;1280;124348;-74
2023/01/14 10:15:50;;;;;;;;;;;;;;;6.23;87.18;98711.36;106628;1280;22548;-74
2023/01/14 10:18:36;;;;;;;;;;;;;;;6.26;86.84;98708.92;106588;1264;124518;-74
2023/01/14 10:21:12;;;;;;;;;;;;;;;6.33;86.91;98707.13;106505;1278;22518;-74
2023/01/14 10:23:40;;;;;;;;;;;;;;;6.40;86.47;98702.23;106459;1281;22519;-74
2023/01/14 10:26:11;;;;;;;;;;;;;;;6.47;86.27;98704.10;106367;1279;124320;-74
2023/01/14 10:28:38;;;;;;;;;;;;;;;6.55;86.52;98701.17;106575;1269;22792;-74
2023/01/14 10:31:06;;;;;;;;;;;;;;;6.63;86.09;98701.69;106544;1273;124951;-74
2023/01/14 10:33:33;;;;;;;;;;;;;;;6.72;86.16;98699.40;106761;1276;25399;-74
2023/01/14 10:36:02;;;;;;;;;;;;;;;6.80;85.96;98698.25;106623;1280;24222;-74
2023/01/14 10:38:29;;;;;;;;;;;;;;;6.89;85.23;98699.25;106521;1258;124106;-74
2023/01/14 10:41:02;;;;;;;;;;;;;;;6.96;84.93;98702.21;106561;1281;25518;-74
2023/01/14 10:43:31;;;;;;;;;;;;;;;7.03;84.51;98703.94;106590;1281;124754;-74
2023/01/14 10:45:58;;;;;;;;;;;;;;;7.09;83.70;98699.86;106610;1281;23480;-74
2023/01/14 10:48:26;;;;;;;;;;;;;;;7.14;83.50;98696.97;106657;1281;125056;-74
2023/01/14 10:50:53;;;;;;;;;;;;;;;7.19;83.54;98696.72;106684;1268;23881;-74
2023/01/14 10:53:20;;;;;;;;;;;;;;;7.23;83.52;98691.70;106661;1280;23937;-74
2023/01/14 10:55:50;;;;;;;;;;;;;;;7.31;83.41;98693.11;106536;1280;125003;-74
2023/01/14 10:58:37;;;;;;;;;;;;;;;7.38;82.27;98687.57;106672;1280;24208;-74
2023/01/14 11:01:08;;;;;;;;;;;;;;;7.39;81.25;98686.56;106463;1270;126071;-74
2023/01/14 11:03:37;;;;;;;;;;;;;;;7.33;80.34;98686.73;106545;1281;22508;-74
2023/01/14 11:06:15;;;;;;;;;;;;;;;7.25;80.88;98682.77;106452;1280;22630;-74
2023/01/14 11:08:48;;;;;;;;;;;;;;;7.19;80.38;98676.18;106494;1278;25378;-74
2023/01/14 11:11:19;;;;;;;;;;;;;;;7.12;80.51;98680.05;106485;1263;25390;-74
2023/01/14 11:13:50;;;;;;;;;;;;;;;7.10;80.71;98682.02;106683;1282;124250;-74
2023/01/14 11:16:30;;;;;;;;;;;;;;;7.08;80.85;98677.37;106505;1282;22795;-74
2023/01/14 11:19:01;;;;;;;;;;;;;;;7.07;80.80;98678.67;106355;1281;124632;-74
2023/01/14 11:21:31;;;;;;;;;;;;;;;7.07;80.19;98677.27;106439;1259;25481;-74
2023/01/14 11:23:59;;;;;;;;;;;;;;;7.09;80.59;98677.54;106454;1281;25350;-75
2023/01/14 11:26:26;;;;;;;;;;;;;;;7.12;80.44;98679.38;106425;1277;124985;-75
2023/01/14 11:28:58;;;;;;;;;;;;;;;7.14;80.72;98677.72;106531;1281;22675;-74
2023/01/14 11:31:27;;;;;;;;;;;;;;;7.15;80.54;98676.30;106389;1270;124602;-75
2023/01/14 11:33:54;;;;;;;;;;;;;;;7.14;80.31;98673.63;106448;1282;22525;-74
2023/01/14 11:36:25;;;;;;;;;;;;;;;7.14;79.78;98676.20;106360;1281;124724;-75
2023/01/14 11:38:53;;;;;;;;;;;;;;;7.13;79.72;98677.01;107400;1276;22529;-74
2023/01/14 11:41:28;;;;;;;;;;;;;;;7.16;79.80;98673.20;106541;1264;23899;-74
2023/01/14 11:44:14;;;;;;;;;;;;;;;7.19;79.79;98672.92;106448;1281;124781;-75
2023/01/14 11:46:45;;;;;;;;;;;;;;;7.22;79.22;98670.29;106470;1281;22521;-74
2023/01/14 11:49:12;;;;;;;;;;;;;;;7.27;79.43;98665.76;107306;1281;124320;-75
2023/01/14 11:51:40;;;;;;;;;;;;;;;7.33;79.08;98663.38;107702;1263;22519;-74
2023/01/14 11:54:31;;;;;;;;;;;;;;;7.40;79.03;98656.79;106578;1281;22599;-74
2023/01/14 11:56:57;;;;;;;;;;;;;;;7.46;78.40;98655.04;106413;1282;22527;-74
2023/01/14 11:59:27;;;;;;;;;;;;;;;7.51;78.56;98652.70;106463;1281;23915;-74
2023/01/14 12:02:11;;;;;;;;;;;;;;;7.58;78.61;98647.39;106354;1263;125262;-75
2023/01/14 12:04:49;;;;;;;;;;;;;;;7.64;77.76;98645.64;106467;1282;25386;-74
2023/01/14 12:07:28;;;;;;;;;;;;;;;7.69;78.00;98646.52;107255;1275;125546;-74
2023/01/14 12:10:00;;;;;;;;;;;;;;;7.73;77.60;98645.68;107005;1276;22512;-74
2023/01/14 12:16:48;;;;;;;;;;;;;;;7.77;77.11;98644.06;106698;1264;125783;-75
2023/01/14 12:18:09;;;;;;;;;;;;;;;7.82;76.30;98639.94;107192;1279;25648;-74
2023/01/14 12:20:36;;;;;;;;;;;;;;;7.85;76.42;98635.73;106533;1263;124309;-74
2023/01/14 12:23:08;;;;;;;;;;;;;;;7.88;76.37;98632.24;106507;1281;22528;-74
2023/01/14 12:25:41;;;;;;;;;;;;;;;7.90;76.03;98621.21;108947;1281;22575;-74
2023/01/14 12:28:19;;;;;;;;;;;;;;;7.95;76.15;98614.78;106512;1281;25217;-74
2023/01/14 12:31:05;;;;;;;;;;;;;;;8.00;75.68;98611.64;106480;1257;25382;-74
2023/01/14 12:33:32;;;;;;;;;;;;;;;8.07;75.74;98610.86;106591;1280;23356;-74
2023/01/14 12:36:18;;;;;;;;;;;;;;;8.11;75.39;98599.77;106629;1267;22510;-74
2023/01/14 12:47:11;;;;;;;;;;;;;;;8.22;73.68;98607.31;106785;1282;24328;-74
2023/01/14 12:49:39;;;;;;;;;;;;;;;8.22;73.38;98606.33;106909;1277;23270;-74
2023/01/14 12:52:07;;;;;;;;;;;;;;;8.22;73.22;98599.60;106846;1262;25377;-74
2023/01/14 12:54:35;;;;;;;;;;;;;;;8.25;73.70;98602.62;106724;1269;22570;-74
2023/01/14 12:57:04;;;;;;;;;;;;;;;8.29;73.70;98603.64;106511;1281;23087;-74
2023/01/14 12:59:33;;;;;;;;;;;;;;;8.31;72.79;98599.08;106645;1280;22525;-73
2023/01/14 13:02:03;;;;;;;;;;;;;;;8.33;72.84;98602.43;107221;1272;125618;-74
2023/01/14 13:04:37;;;;;;;;;;;;;;;8.37;73.09;98599.70;106679;1277;22528;-73
2023/01/14 13:07:04;;;;;;;;;;;;;;;8.39;72.91;98597.85;106690;1277;124654;-74
2023/01/14 13:09:39;;;;;;;;;;;;;;;8.38;71.98;98602.08;106573;1276;22510;-73
2023/01/14 13:12:14;;;;;;;;;;;;;;;8.36;72.38;98600.77;106529;1264;22523;-74
2023/01/14 13:14:41;;;;;;;;;;;;;;;8.35;72.24;98602.44;106570;1274;124257;-73
2023/01/14 13:17:21;;;;;;;;;;;;;;;8.36;72.80;98597.64;106832;1279;22519;-75
2023/01/14 13:19:52;;;;;;;;;;;;;;;8.38;72.53;98599.09;106624;1276;124456;-73
2023/01/14 13:22:37;;;;;;;;;;;;;;;8.38;72.53;98593.83;106523;1274;22538;-74
2023/01/14 13:25:04;;;;;;;;;;;;;;;8.37;72.41;98591.25;106347;1277;124684;-74
2023/01/14 13:27:31;;;;;;;;;;;;;;;8.35;72.73;98595.61;106821;1283;22517;-73
2023/01/14 13:30:16;;;;;;;;;;;;;;;8.29;72.38;98598.19;106739;1272;22543;-74
2023/01/14 13:32:49;;;;;;;;;;;;;;;8.23;72.66;98598.11;106468;1273;124296;-74